Iskenderun, Turkey

7:36 PM EEST on July 25, 2014 (GMT +0300)
Incirlik Air Base (LTAG) Elev 217 ft | 37.00 °N, 35.43 °E | Change Station

Current weather conditions updated 16 minutes ago

Mostly Cloudy
Mostly Cloudy
82 °F
Feels Like 86 °F
N
10
Wind Variable Wind from South

Tomorrow is forecast to be nearly the same temperature as today.

Today
High -- | Low -- °F
--% Chance of Precip.
Yesterday
High -- | Low -- °F
Precip. -- in
5:35 AM 7:47 PM
Waning Crescent, 1% visible
Pressure 29.65 in
Visibility 6.2 miles
Clouds Mostly Cloudy 3500 ft
Heat Index 86 °F
Dew Point 70 °F
Humidity 66%
Rainfall 0.00 in
Snow Depth Not available.
UV 0 out of 12
Pollen Not available.
Air Quality Not available.
Flu Activity Not available.
METAR LTAG 251620Z 19009KT 9999 BKN035 28/21 Q1004 NOSIG

More Conditions Fewer Conditions

Pressure 29.65 in
Visibility 6.2 miles
Clouds Mostly Cloudy 3500 ft
Heat Index 86 °F
Dew Point 70 °F
Humidity 66%
Rainfall 0.00 in
Snow Depth Not available.
UV 0 out of 12
Pollen Not available.
Air Quality Not available.
Flu Activity Not available.
METAR LTAG 251620Z 19009KT 9999 BKN035 28/21 Q1004 NOSIG

More Conditions Fewer Conditions

10-Day Weather Forecast

Almanac

Astronomy

Jul. 25, 2014 Rise Set
Actual Time 5:35 AM EEST 7:47 PM EEST
Civil Twilight 5:06 AM EEST 8:16 PM EEST
Nautical Twilight 4:30 AM EEST 8:52 PM EEST
Astronomical Twilight 3:52 AM EEST 9:30 PM EEST
Moon 4:15 AM EEST 6:31 PM EEST
Length of Visible Light 15h 10m
Length of Day
14h 11m
Tomorrow will be 1m 32s shorter.
Waning Crescent, 1% of the Moon is Illuminated
Today
Waning Crescent
Jul 26
New
Aug 3
First Quarter
Aug 10
Full
Aug 17
Last Quarter

Today's Extremes

Country Highs Country Lows

Community

WunderPhotos

Upload Photos

1,737,362 photos uploaded!

Nearby

Snow Depth

Not available.

Earthquake Activity

City Distance Mag. Time & Date
No recent earthquake activity has been reported nearby.
Minimum magnitude displayed is 2.5.

Coastal Water Temperatures

Place Temperature
No Stations Reporting

Nearby Weather Stations

There are no personal weather stations in this area.